GRZ572 Details

Departure: (PACD)
Arrival: (PADU)
Route: CDB J115 DUT


Current Weather Information
PACD 171553Z AUTO 34011KT 10SM CLR 13/12 A3042 RMK AO2 SLP302 T01330117 TSNO
PADU 171556Z 23006KT 1/4SM FG BKN000 OVC003 10/10 A3044 RMK AO2 SLP312 FG BKN000 T01000100